createdAt,value
2022-12-09T00:00:15.940Z,0
2022-12-09T00:01:14.891Z,0
2022-12-09T00:02:15.785Z,0
2022-12-09T00:03:17.836Z,0
2022-12-09T00:04:16.037Z,0
2022-12-09T00:05:14.726Z,0
2022-12-09T00:06:14.441Z,0
2022-12-09T00:07:14.679Z,0
2022-12-09T00:08:14.891Z,0
2022-12-09T00:09:14.558Z,0
2022-12-09T00:10:16.416Z,0
2022-12-09T00:11:14.692Z,0
2022-12-09T00:12:14.626Z,0
2022-12-09T00:13:14.403Z,0
2022-12-09T00:14:14.286Z,0
2022-12-09T00:15:14.532Z,0
2022-12-09T00:16:15.078Z,0
2022-12-09T00:17:15.515Z,0
2022-12-09T00:18:14.497Z,0
2022-12-09T00:19:14.655Z,0
2022-12-09T00:20:15.574Z,0
2022-12-09T00:21:14.093Z,0
2022-12-09T00:22:14.504Z,0
2022-12-09T00:23:14.025Z,0
2022-12-09T00:24:14.325Z,0
2022-12-09T00:25:14.633Z,0
2022-12-09T00:26:14.420Z,0
2022-12-09T00:27:14.409Z,0
2022-12-09T00:28:14.352Z,0
2022-12-09T00:29:13.911Z,0
2022-12-09T00:30:15.727Z,0
2022-12-09T00:31:14.966Z,0
2022-12-09T00:32:15.322Z,0
2022-12-09T00:33:14.041Z,0
2022-12-09T00:34:14.620Z,0
2022-12-09T00:35:14.184Z,0
2022-12-09T00:36:14.122Z,0
2022-12-09T00:37:14.019Z,0
2022-12-09T00:38:14.036Z,0
2022-12-09T00:39:13.832Z,0
2022-12-09T00:40:15.260Z,0
2022-12-09T00:41:14.259Z,0
2022-12-09T00:42:13.697Z,0
2022-12-09T00:43:13.887Z,0
2022-12-09T00:44:14.315Z,0
2022-12-09T00:45:14.155Z,0
2022-12-09T00:46:14.494Z,0
2022-12-09T00:47:14.300Z,0
2022-12-09T00:48:14.271Z,0
2022-12-09T00:49:13.940Z,0
2022-12-09T00:50:15.445Z,0
2022-12-09T00:51:14.470Z,0
2022-12-09T00:52:14.046Z,0
2022-12-09T00:53:13.793Z,0
2022-12-09T00:54:14.383Z,0
2022-12-09T00:55:14.168Z,0
2022-12-09T00:56:13.297Z,0
2022-12-09T00:57:13.614Z,0
2022-12-09T00:58:13.415Z,0
2022-12-09T00:59:13.420Z,0
2022-12-09T01:00:15.283Z,0
2022-12-09T01:01:13.578Z,0
2022-12-09T01:02:13.899Z,0
2022-12-09T01:03:14.743Z,0
2022-12-09T01:04:14.837Z,0
2022-12-09T01:05:14.409Z,0
2022-12-09T01:06:13.879Z,0
2022-12-09T01:07:13.884Z,0
2022-12-09T01:08:13.547Z,0
2022-12-09T01:09:14.326Z,0
2022-12-09T01:10:15.023Z,0
2022-12-09T01:11:13.472Z,0
2022-12-09T01:12:13.677Z,0
2022-12-09T01:13:13.261Z,0
2022-12-09T01:14:13.315Z,0
2022-12-09T01:15:13.555Z,0
2022-12-09T01:16:13.350Z,0
2022-12-09T01:17:13.550Z,0
2022-12-09T01:18:13.550Z,0
2022-12-09T01:19:13.088Z,0
2022-12-09T01:20:14.738Z,0
2022-12-09T01:21:13.411Z,0
2022-12-09T01:22:13.338Z,0
2022-12-09T01:23:13.370Z,0
2022-12-09T01:24:14.200Z,0
2022-12-09T01:25:13.477Z,0
2022-12-09T01:26:13.938Z,0
2022-12-09T01:27:13.209Z,0
2022-12-09T01:28:13.689Z,0
2022-12-09T01:29:13.177Z,0
2022-12-09T01:30:14.658Z,0
2022-12-09T01:31:13.450Z,0
2022-12-09T01:32:13.038Z,0
2022-12-09T01:33:13.294Z,0
2022-12-09T01:34:13.398Z,0
2022-12-09T01:35:12.980Z,0
2022-12-09T01:36:13.460Z,0
2022-12-09T01:37:12.920Z,0
2022-12-09T01:38:13.104Z,0
2022-12-09T01:39:13.380Z,0
2022-12-09T01:40:14.394Z,0
2022-12-09T01:41:12.291Z,0
2022-12-09T01:42:12.871Z,0
2022-12-09T01:43:12.868Z,0
2022-12-09T01:44:13.114Z,0
2022-12-09T01:45:12.652Z,0
2022-12-09T01:46:13.008Z,0
2022-12-09T01:47:13.583Z,0
2022-12-09T01:48:12.936Z,0
2022-12-09T01:49:13.302Z,0
2022-12-09T01:50:13.839Z,0
2022-12-09T01:51:12.421Z,0
2022-12-09T01:52:13.593Z,0
2022-12-09T01:53:44.592Z,0
2022-12-09T01:54:12.874Z,0
2022-12-09T01:55:12.216Z,0
2022-12-09T01:56:12.703Z,0
2022-12-09T01:57:12.580Z,0
2022-12-09T01:58:12.577Z,0
2022-12-09T01:59:12.830Z,0
2022-12-09T02:00:14.034Z,0
2022-12-09T02:01:12.807Z,0
2022-12-09T02:02:12.872Z,0
2022-12-09T02:03:13.549Z,0
2022-12-09T02:04:13.622Z,0
2022-12-09T02:05:13.081Z,0
2022-12-09T02:06:12.110Z,0
2022-12-09T02:07:12.308Z,0
2022-12-09T02:08:13.601Z,0
2022-12-09T02:09:13.414Z,0
2022-12-09T02:10:14.375Z,0
2022-12-09T02:11:12.787Z,0
2022-12-09T02:12:12.446Z,0
2022-12-09T02:13:12.472Z,0
2022-12-09T02:14:12.587Z,0
2022-12-09T02:15:12.516Z,0
2022-12-09T02:16:12.825Z,0
2022-12-09T02:17:12.939Z,0
2022-12-09T02:18:12.578Z,0
2022-12-09T02:19:12.585Z,0
2022-12-09T02:20:14.450Z,0
2022-12-09T02:21:12.556Z,0
2022-12-09T02:22:12.667Z,0
2022-12-09T02:23:12.767Z,0
2022-12-09T02:24:12.963Z,0
2022-12-09T02:25:12.664Z,0
2022-12-09T02:26:12.710Z,0
2022-12-09T02:27:12.719Z,0
2022-12-09T02:28:12.320Z,0
2022-12-09T02:29:11.998Z,0
2022-12-09T02:30:13.791Z,0
2022-12-09T02:31:12.991Z,0
2022-12-09T02:32:13.015Z,0
2022-12-09T02:33:13.313Z,0
2022-12-09T02:34:12.210Z,0
2022-12-09T02:35:12.053Z,0
2022-12-09T02:36:12.953Z,0
2022-12-09T02:37:12.559Z,0
2022-12-09T02:38:11.902Z,0
2022-12-09T02:39:12.297Z,0
2022-12-09T02:40:14.322Z,0
2022-12-09T02:41:12.632Z,0
2022-12-09T02:42:11.685Z,0
2022-12-09T02:43:12.175Z,0
2022-12-09T02:44:11.259Z,0
2022-12-09T02:45:11.900Z,0
2022-12-09T02:46:12.071Z,0
2022-12-09T02:47:12.037Z,0
2022-12-09T02:48:12.770Z,0
2022-12-09T02:49:11.356Z,0
2022-12-09T02:50:14.677Z,0
2022-12-09T02:51:11.367Z,0
2022-12-09T02:52:11.883Z,0
2022-12-09T02:53:11.884Z,0
2022-12-09T02:54:11.564Z,0
2022-12-09T02:55:12.269Z,0
2022-12-09T02:56:12.107Z,0
2022-12-09T02:57:11.684Z,0
2022-12-09T02:58:11.186Z,0
2022-12-09T02:59:11.367Z,0
2022-12-09T03:00:13.396Z,0
2022-12-09T03:01:11.996Z,0
2022-12-09T03:02:12.492Z,0
2022-12-09T03:03:13.267Z,0
2022-12-09T03:04:11.626Z,0
2022-12-09T03:05:11.303Z,0
2022-12-09T03:06:11.125Z,0
2022-12-09T03:07:11.343Z,0
2022-12-09T03:08:11.821Z,0
2022-12-09T03:09:12.032Z,0
2022-12-09T03:10:12.963Z,0
2022-12-09T03:11:11.391Z,0
2022-12-09T03:12:11.077Z,0
2022-12-09T03:13:11.792Z,0
2022-12-09T03:14:11.057Z,0
2022-12-09T03:15:11.365Z,0
2022-12-09T03:16:11.743Z,0
2022-12-09T03:17:11.291Z,0
2022-12-09T03:18:11.954Z,0
2022-12-09T03:19:10.729Z,0
2022-12-09T03:20:12.861Z,0
2022-12-09T03:21:11.370Z,0
2022-12-09T03:22:11.173Z,0
2022-12-09T03:23:11.140Z,0
2022-12-09T03:24:11.518Z,0
2022-12-09T03:25:11.134Z,0
2022-12-09T03:26:11.037Z,0
2022-12-09T03:27:11.001Z,0
2022-12-09T03:28:11.731Z,0
2022-12-09T03:29:11.703Z,0
2022-12-09T03:30:13.297Z,0
2022-12-09T03:31:11.136Z,0
2022-12-09T03:32:11.167Z,0
2022-12-09T03:33:11.796Z,0
2022-12-09T03:50:12.914Z,0
2022-12-09T03:51:11.769Z,0
2022-12-09T03:52:11.285Z,0
2022-12-09T03:53:11.081Z,0
2022-12-09T03:54:11.312Z,0
2022-12-09T03:55:11.279Z,0
2022-12-09T03:56:11.624Z,0
2022-12-09T03:57:18.900Z,0
2022-12-09T03:58:10.808Z,0
2022-12-09T03:59:11.840Z,0
2022-12-09T04:00:13.461Z,0
2022-12-09T04:01:12.084Z,0
2022-12-09T04:02:12.569Z,0
2022-12-09T04:03:12.724Z,0
2022-12-09T04:04:12.196Z,0
2022-12-09T04:05:12.331Z,0
2022-12-09T04:06:11.586Z,0
2022-12-09T04:07:11.149Z,0
2022-12-09T04:08:11.423Z,0
2022-12-09T04:09:11.322Z,0
2022-12-09T04:10:12.503Z,0
2022-12-09T04:11:11.470Z,0
2022-12-09T04:12:11.142Z,0
2022-12-09T04:13:11.258Z,0
2022-12-09T04:14:18.354Z,0
2022-12-09T04:15:11.007Z,0
2022-12-09T04:16:10.359Z,0
2022-12-09T04:17:11.195Z,0
2022-12-09T04:18:11.509Z,0
2022-12-09T04:19:10.961Z,0
2022-12-09T04:20:13.264Z,0
2022-12-09T04:21:11.087Z,0
2022-12-09T04:22:11.710Z,0
2022-12-09T04:23:11.271Z,0
2022-12-09T04:24:10.374Z,0
2022-12-09T04:25:11.009Z,0
2022-12-09T04:26:10.514Z,0
2022-12-09T04:27:11.281Z,0
2022-12-09T04:28:10.742Z,0
2022-12-09T04:29:10.646Z,0
2022-12-09T04:30:13.228Z,0
2022-12-09T04:31:10.563Z,0
2022-12-09T04:32:11.141Z,0
2022-12-09T04:33:09.984Z,0
2022-12-09T04:34:16.378Z,0
2022-12-09T04:35:10.695Z,0
2022-12-09T04:36:09.767Z,0
2022-12-09T04:37:10.112Z,0
2022-12-09T04:38:10.728Z,0
2022-12-09T04:39:10.798Z,0
2022-12-09T04:40:12.582Z,0
2022-12-09T04:41:10.538Z,0
2022-12-09T04:42:09.921Z,0
2022-12-09T04:43:10.199Z,0
2022-12-09T04:44:10.180Z,0
2022-12-09T04:45:10.764Z,0
2022-12-09T04:46:11.224Z,0
2022-12-09T04:47:09.955Z,0
2022-12-09T04:48:10.339Z,0
2022-12-09T04:49:10.652Z,0
2022-12-09T04:50:11.900Z,0
2022-12-09T04:51:10.474Z,0
2022-12-09T04:52:10.179Z,0
2022-12-09T04:53:10.381Z,0
2022-12-09T04:54:09.945Z,0
2022-12-09T04:55:10.191Z,0
2022-12-09T04:56:10.242Z,0
2022-12-09T04:57:09.832Z,0
2022-12-09T04:58:09.601Z,0
2022-12-09T04:59:09.487Z,0
2022-12-09T05:00:11.622Z,0
2022-12-09T05:01:10.144Z,0
2022-12-09T05:02:09.884Z,0
2022-12-09T05:03:10.637Z,0
2022-12-09T05:04:11.520Z,0
2022-12-09T05:05:12.317Z,0
2022-12-09T05:06:11.747Z,0
2022-12-09T05:07:11.060Z,0
2022-12-09T05:08:11.661Z,0
2022-12-09T05:09:10.895Z,0
2022-12-09T05:10:13.556Z,0
2022-12-09T05:11:11.997Z,0
2022-12-09T05:12:10.984Z,0
2022-12-09T05:13:10.417Z,0
2022-12-09T05:14:10.759Z,0
2022-12-09T05:15:11.545Z,0
2022-12-09T05:16:19.832Z,0
2022-12-09T05:17:11.629Z,0
2022-12-09T05:18:11.499Z,0
2022-12-09T05:19:10.403Z,0
2022-12-09T05:20:12.947Z,0
2022-12-09T05:21:10.369Z,0
2022-12-09T05:22:10.193Z,0
2022-12-09T05:23:16.543Z,0
2022-12-09T05:24:10.795Z,0
2022-12-09T05:25:11.015Z,0
2022-12-09T05:26:11.250Z,0
2022-12-09T05:27:10.924Z,0
2022-12-09T05:28:10.618Z,0
2022-12-09T05:29:11.142Z,0
2022-12-09T05:30:11.208Z,0
2022-12-09T05:31:10.901Z,0
2022-12-09T05:32:11.168Z,0
2022-12-09T05:33:11.632Z,0
2022-12-09T05:34:11.548Z,0
2022-12-09T05:35:10.322Z,0
2022-12-09T05:36:11.041Z,0
2022-12-09T05:37:10.771Z,0
2022-12-09T05:38:10.097Z,0
2022-12-09T05:39:10.521Z,0
2022-12-09T05:40:12.219Z,0
2022-12-09T05:41:10.363Z,0
2022-12-09T05:42:10.545Z,0
2022-12-09T05:43:10.002Z,0
2022-12-09T05:44:10.658Z,0
2022-12-09T05:45:09.586Z,0
2022-12-09T05:46:10.912Z,0
2022-12-09T05:47:10.654Z,0
2022-12-09T05:48:11.140Z,0
2022-12-09T05:49:11.264Z,0
2022-12-09T05:50:17.407Z,0
2022-12-09T05:51:10.645Z,0
2022-12-09T05:52:09.848Z,0
2022-12-09T05:53:09.503Z,0
2022-12-09T05:54:11.137Z,0
2022-12-09T05:55:10.351Z,0
2022-12-09T05:56:11.436Z,0
2022-12-09T05:57:10.799Z,0
2022-12-09T05:58:10.330Z,0
2022-12-09T05:59:09.915Z,0
2022-12-09T06:00:11.961Z,0
2022-12-09T06:01:10.167Z,0
2022-12-09T06:02:16.832Z,0
2022-12-09T06:03:10.780Z,0
2022-12-09T06:04:11.138Z,0
2022-12-09T06:05:10.295Z,0
2022-12-09T06:06:10.834Z,0
2022-12-09T06:07:09.506Z,0
2022-12-09T06:08:14.838Z,0
2022-12-09T06:09:09.982Z,0
2022-12-09T06:10:11.749Z,0
2022-12-09T06:11:10.476Z,0
2022-12-09T06:12:09.690Z,0
2022-12-09T06:13:09.956Z,0
2022-12-09T06:14:10.303Z,0
2022-12-09T06:15:17.398Z,0
2022-12-09T06:16:10.044Z,0
2022-12-09T06:17:10.347Z,0
2022-12-09T06:18:09.795Z,0
2022-12-09T06:19:10.060Z,0
2022-12-09T06:20:10.262Z,0
2022-12-09T06:21:10.148Z,0
2022-12-09T06:22:10.058Z,0
2022-12-09T06:23:09.169Z,0
2022-12-09T06:24:09.294Z,0
2022-12-09T06:25:08.268Z,0
2022-12-09T06:26:08.789Z,0
2022-12-09T06:27:09.826Z,4
2022-12-09T06:28:08.848Z,4
2022-12-09T06:29:09.882Z,4
2022-12-09T06:30:10.002Z,4
2022-12-09T06:31:10.403Z,4
2022-12-09T06:32:09.263Z,8
2022-12-09T06:33:57.520Z,8
2022-12-09T06:34:10.508Z,8
2022-12-09T06:35:11.274Z,8
2022-12-09T06:36:09.092Z,8
2022-12-09T06:37:09.934Z,8
2022-12-09T06:38:09.196Z,12
2022-12-09T06:39:16.591Z,16
2022-12-09T06:40:09.550Z,16
2022-12-09T06:41:09.317Z,20
2022-12-09T06:42:08.999Z,24
2022-12-09T06:43:08.677Z,24
2022-12-09T06:44:09.157Z,28
2022-12-09T06:45:10.759Z,32
2022-12-09T06:46:10.259Z,36
2022-12-09T06:47:09.336Z,44
2022-12-09T06:48:10.233Z,48
2022-12-09T06:49:10.279Z,52
2022-12-09T06:50:15.358Z,60
2022-12-09T06:51:09.656Z,64
2022-12-09T06:52:09.118Z,72
2022-12-09T06:53:08.938Z,80
2022-12-09T06:54:09.716Z,88
2022-12-09T06:55:09.994Z,92
2022-12-09T06:56:18.465Z,104
2022-12-09T06:57:08.624Z,112
2022-12-09T06:58:08.890Z,120
2022-12-09T06:59:09.315Z,128
2022-12-09T07:00:09.148Z,136
2022-12-09T07:01:09.003Z,148
2022-12-09T07:02:10.042Z,164
2022-12-09T07:03:09.193Z,176
2022-12-09T07:04:09.934Z,192
2022-12-09T07:05:11.268Z,208
2022-12-09T07:06:10.193Z,220
2022-12-09T07:07:09.660Z,232
2022-12-09T07:08:08.575Z,244
2022-12-09T07:09:08.874Z,252
2022-12-09T07:10:09.595Z,260
2022-12-09T07:11:09.567Z,268
2022-12-09T07:12:08.597Z,272
2022-12-09T07:13:08.577Z,280
2022-12-09T07:14:08.760Z,280
2022-12-09T07:15:10.274Z,280
2022-12-09T07:16:08.709Z,284
2022-12-09T07:17:09.229Z,288
2022-12-09T07:18:09.533Z,308
2022-12-09T07:19:08.835Z,328
2022-12-09T07:20:14.851Z,348
2022-12-09T07:21:09.314Z,360
2022-12-09T07:22:08.685Z,368
2022-12-09T07:23:08.313Z,380
2022-12-09T07:24:08.999Z,388
2022-12-09T07:25:10.063Z,396
2022-12-09T07:26:08.765Z,404
2022-12-09T07:27:22.227Z,400
2022-12-09T07:28:08.088Z,396
2022-12-09T07:29:09.272Z,392
2022-12-09T07:30:08.844Z,380
2022-12-09T07:31:08.330Z,368
2022-12-09T07:32:08.648Z,364
2022-12-09T07:33:08.715Z,368
2022-12-09T07:34:09.477Z,372
2022-12-09T07:35:09.571Z,376
2022-12-09T07:36:08.431Z,384
2022-12-09T07:37:08.443Z,396
2022-12-09T07:38:08.044Z,416
2022-12-09T07:39:08.977Z,440
2022-12-09T07:40:07.982Z,448
2022-12-09T07:41:08.207Z,460
2022-12-09T07:42:07.682Z,472
2022-12-09T07:43:08.263Z,488
2022-12-09T07:44:08.028Z,496
2022-12-09T07:45:09.123Z,508
2022-12-09T07:46:08.462Z,520
2022-12-09T07:47:08.650Z,536
2022-12-09T07:48:08.206Z,556
2022-12-09T07:49:08.266Z,556
2022-12-09T07:50:14.321Z,560
2022-12-09T07:51:08.051Z,568
2022-12-09T07:52:07.729Z,560
2022-12-09T07:53:07.512Z,556
2022-12-09T07:54:08.720Z,580
2022-12-09T07:55:09.243Z,612
2022-12-09T07:56:09.206Z,636
2022-12-09T07:57:08.091Z,640
2022-12-09T07:58:07.774Z,640
2022-12-09T07:59:07.764Z,612
2022-12-09T08:00:08.072Z,616
2022-12-09T08:01:07.613Z,624
2022-12-09T08:02:13.160Z,632
2022-12-09T08:03:08.196Z,628
2022-12-09T08:04:09.066Z,628
2022-12-09T08:05:08.915Z,628
2022-12-09T08:06:09.464Z,620
2022-12-09T08:07:08.300Z,620
2022-12-09T08:08:09.544Z,644
2022-12-09T08:09:09.210Z,696
2022-12-09T08:10:08.486Z,760
2022-12-09T08:11:07.519Z,824
2022-12-09T08:12:07.893Z,880
2022-12-09T08:13:07.448Z,912
2022-12-09T08:14:16.871Z,964
2022-12-09T08:15:08.106Z,1008
2022-12-09T08:16:07.830Z,1052
2022-12-09T08:17:07.310Z,1112
2022-12-09T08:18:07.809Z,1160
2022-12-09T08:19:08.097Z,1208
2022-12-09T08:20:08.370Z,1248
2022-12-09T08:21:07.520Z,1288
2022-12-09T08:22:07.518Z,1256
2022-12-09T08:23:06.966Z,1228
2022-12-09T08:24:07.565Z,1272
2022-12-09T08:25:08.188Z,1280
2022-12-09T08:26:07.541Z,1348
2022-12-09T08:27:07.073Z,1356
2022-12-09T08:28:07.133Z,1336
2022-12-09T08:29:08.239Z,1360
2022-12-09T08:30:08.945Z,1460
2022-12-09T08:31:07.445Z,1528
2022-12-09T08:32:07.527Z,1460
2022-12-09T08:33:07.499Z,1456
2022-12-09T08:34:07.205Z,1324
2022-12-09T08:35:08.155Z,1264
2022-12-09T08:36:06.542Z,1216
2022-12-09T08:37:10.357Z,1212
2022-12-09T08:38:07.352Z,1228
2022-12-09T08:39:06.925Z,1256
2022-12-09T08:40:07.035Z,1328
2022-12-09T08:41:06.788Z,1396
2022-12-09T08:42:06.843Z,1428
2022-12-09T08:43:06.985Z,1492
2022-12-09T08:44:07.163Z,1540
2022-12-09T08:45:11.329Z,1544
2022-12-09T08:46:06.438Z,1632
2022-12-09T08:47:07.387Z,1740
2022-12-09T08:48:06.988Z,1712
2022-12-09T08:49:08.165Z,1776
2022-12-09T08:50:08.225Z,1832
2022-12-09T08:51:07.215Z,1988
2022-12-09T08:52:05.844Z,2108
2022-12-09T08:53:07.311Z,2220
2022-12-09T08:54:07.737Z,2048
2022-12-09T08:55:07.781Z,2052
2022-12-09T08:56:06.404Z,2108
2022-12-09T08:57:07.072Z,2180
2022-12-09T08:58:08.505Z,2140
2022-12-09T08:59:07.576Z,2248
2022-12-09T09:00:08.263Z,2360
2022-12-09T09:01:08.159Z,2448
2022-12-09T09:02:08.450Z,2564
2022-12-09T09:03:08.566Z,2652
2022-12-09T09:04:09.261Z,2648
2022-12-09T09:05:09.311Z,2484
2022-12-09T09:06:16.514Z,2540
2022-12-09T09:07:07.533Z,2672
2022-12-09T09:08:06.767Z,2740
2022-12-09T09:09:08.861Z,2696
2022-12-09T09:10:08.574Z,2592
2022-12-09T09:11:08.384Z,2584
2022-12-09T09:12:06.995Z,2712
2022-12-09T09:13:07.626Z,2892
2022-12-09T09:14:07.658Z,2996
2022-12-09T09:15:07.733Z,2948
2022-12-09T09:16:08.658Z,2548
2022-12-09T09:17:07.631Z,2376
2022-12-09T09:18:07.753Z,2344
2022-12-09T09:19:07.759Z,2296
2022-12-09T09:20:07.923Z,2284
2022-12-09T09:21:07.773Z,2228
2022-12-09T09:22:06.927Z,2248
2022-12-09T09:23:11.284Z,2360
2022-12-09T09:24:07.269Z,2388
2022-12-09T09:25:08.001Z,2388
2022-12-09T09:26:07.668Z,2416
2022-12-09T09:27:06.629Z,2424
2022-12-09T09:28:06.937Z,2400
2022-12-09T09:29:06.742Z,2360
2022-12-09T09:30:08.193Z,2348
2022-12-09T09:31:07.488Z,2380
2022-12-09T09:32:07.440Z,2436
2022-12-09T09:33:07.656Z,2456
2022-12-09T09:34:07.678Z,2444
2022-12-09T09:35:08.084Z,2428
2022-12-09T09:36:14.953Z,2408
2022-12-09T09:37:06.859Z,2396
2022-12-09T09:38:06.362Z,2352
2022-12-09T09:39:06.098Z,2324
2022-12-09T09:40:07.250Z,2308
2022-12-09T09:41:06.887Z,2292
2022-12-09T09:42:14.718Z,2288
2022-12-09T09:43:07.018Z,2280
2022-12-09T09:44:07.163Z,2264
2022-12-09T09:45:07.491Z,2296
2022-12-09T09:46:06.421Z,2376
2022-12-09T09:47:07.015Z,2460
2022-12-09T09:48:07.356Z,2496
2022-12-09T09:49:07.684Z,2520
2022-12-09T09:50:09.293Z,2568
2022-12-09T09:51:07.917Z,2516
2022-12-09T09:52:07.248Z,2536
2022-12-09T09:53:06.765Z,2596
2022-12-09T09:54:15.349Z,2636
2022-12-09T09:55:06.877Z,2596
2022-12-09T09:56:07.775Z,2460
2022-12-09T09:57:07.811Z,2392
2022-12-09T09:58:07.319Z,2420
2022-12-09T09:59:08.074Z,2392
2022-12-09T10:00:17.608Z,2196
2022-12-09T10:01:06.717Z,2256
2022-12-09T10:02:07.693Z,2284
2022-12-09T10:03:08.051Z,2336
2022-12-09T10:04:08.703Z,2412
2022-12-09T10:05:08.266Z,2500
2022-12-09T10:06:07.804Z,2544
2022-12-09T10:07:14.153Z,2676
2022-12-09T10:08:08.238Z,2732
2022-12-09T10:09:08.483Z,2772
2022-12-09T10:10:08.815Z,2740
2022-12-09T10:11:08.470Z,2644
2022-12-09T10:12:08.522Z,2592
2022-12-09T10:13:22.877Z,2708
2022-12-09T10:14:08.925Z,2780
2022-12-09T10:15:07.251Z,2764
2022-12-09T10:16:08.224Z,2884
2022-12-09T10:17:07.903Z,3092
2022-12-09T10:18:06.532Z,3272
2022-12-09T10:19:14.826Z,3388
2022-12-09T10:20:08.281Z,3544
2022-12-09T10:21:06.678Z,3596
2022-12-09T10:22:07.300Z,3544
2022-12-09T10:23:07.225Z,3616
2022-12-09T10:24:07.286Z,3576
2022-12-09T10:25:07.201Z,3468
2022-12-09T10:26:07.932Z,3384
2022-12-09T10:27:06.222Z,3528
2022-12-09T10:28:07.219Z,3632
2022-12-09T10:29:06.364Z,3572
2022-12-09T10:30:07.048Z,3444
2022-12-09T10:31:06.988Z,3416
2022-12-09T10:32:06.979Z,3388
2022-12-09T10:33:06.483Z,3320
2022-12-09T10:34:07.385Z,3264
2022-12-09T10:35:07.075Z,3164
2022-12-09T10:36:06.345Z,3024
2022-12-09T10:37:05.811Z,2972
2022-12-09T10:38:06.244Z,2920
2022-12-09T10:39:06.194Z,2840
2022-12-09T10:40:07.746Z,2840
2022-12-09T10:41:06.516Z,2904
2022-12-09T10:42:06.238Z,2956
2022-12-09T10:43:07.259Z,2980
2022-12-09T10:44:06.579Z,2964
2022-12-09T10:45:07.163Z,2872
2022-12-09T10:46:35.666Z,2984
2022-12-09T10:47:06.168Z,2956
2022-12-09T10:48:05.927Z,2852
2022-12-09T10:49:05.761Z,2804
2022-12-09T10:50:06.772Z,2752
2022-12-09T10:51:06.911Z,2728
2022-12-09T10:52:06.340Z,2708
2022-12-09T10:53:05.517Z,2672
2022-12-09T10:54:06.987Z,2712
2022-12-09T10:55:05.466Z,2860
2022-12-09T10:56:05.922Z,2896
2022-12-09T10:57:06.436Z,2912
2022-12-09T10:58:05.859Z,2996
2022-12-09T10:59:05.496Z,3080
2022-12-09T11:00:06.557Z,3140
2022-12-09T11:01:06.277Z,3144
2022-12-09T11:02:07.211Z,3152
2022-12-09T11:03:06.262Z,3116
2022-12-09T11:04:05.919Z,3084
2022-12-09T11:05:07.254Z,3056
2022-12-09T11:06:07.259Z,3016
2022-12-09T11:07:10.401Z,2960
2022-12-09T11:08:06.975Z,2908
2022-12-09T11:09:07.304Z,2824
2022-12-09T11:10:07.289Z,2816
2022-12-09T11:11:05.428Z,2868
2022-12-09T11:12:05.992Z,2920
2022-12-09T11:13:05.723Z,3012
2022-12-09T11:14:05.631Z,3136
2022-12-09T11:15:05.851Z,3256
2022-12-09T11:16:06.116Z,3392
2022-12-09T11:17:06.361Z,3448
2022-12-09T11:18:06.070Z,3412
2022-12-09T11:19:05.942Z,3380
2022-12-09T11:20:06.505Z,3428
2022-12-09T11:21:06.778Z,3276
2022-12-09T11:22:06.252Z,3288
2022-12-09T11:23:06.366Z,3212
2022-12-09T11:24:11.843Z,3124
2022-12-09T11:25:06.123Z,3024
2022-12-09T11:26:05.240Z,2952
2022-12-09T11:27:05.779Z,2940
2022-12-09T11:28:05.395Z,2876
2022-12-09T11:29:05.329Z,2980
2022-12-09T11:30:13.028Z,2976
2022-12-09T11:31:39.010Z,2852
2022-12-09T11:32:04.962Z,2772
2022-12-09T11:33:06.824Z,2632
2022-12-09T11:34:07.424Z,2564
2022-12-09T11:35:05.809Z,2544
2022-12-09T11:37:04.112Z,2528
2022-12-09T11:38:04.357Z,2508
2022-12-09T11:39:03.827Z,2440
2022-12-09T11:40:04.240Z,2328
2022-12-09T11:41:04.031Z,2212
2022-12-09T11:42:04.281Z,2084
2022-12-09T11:43:03.518Z,2000
2022-12-09T11:44:03.727Z,1952
2022-12-09T11:45:03.978Z,2112
2022-12-09T11:46:03.714Z,2320
2022-12-09T11:47:04.230Z,2244
2022-12-09T11:48:46.228Z,2128
2022-12-09T11:49:03.869Z,2076
2022-12-09T11:50:04.775Z,1892
2022-12-09T11:51:03.581Z,1896
2022-12-09T11:52:03.822Z,1940
2022-12-09T11:53:03.797Z,1920
2022-12-09T11:54:08.821Z,1912
2022-12-09T11:55:03.773Z,1936
2022-12-09T11:56:03.480Z,1936
2022-12-09T11:57:03.738Z,1912
2022-12-09T11:58:03.446Z,1896
2022-12-09T11:59:03.424Z,1868
2022-12-09T12:00:03.451Z,1808
2022-12-09T12:01:03.654Z,1704
2022-12-09T12:02:03.944Z,1580
2022-12-09T12:03:03.570Z,1504
2022-12-09T12:04:03.920Z,1456
2022-12-09T12:05:03.567Z,1428
2022-12-09T12:06:03.837Z,1432
2022-12-09T12:07:03.270Z,1480
2022-12-09T12:08:03.984Z,1560
2022-12-09T12:09:03.793Z,1648
2022-12-09T12:10:03.226Z,1780
2022-12-09T12:11:03.198Z,1896
2022-12-09T12:12:03.689Z,1896
2022-12-09T12:13:03.428Z,1952
2022-12-09T12:14:03.396Z,1888
2022-12-09T12:15:03.650Z,1828
2022-12-09T12:16:03.610Z,1780
2022-12-09T12:17:03.299Z,1736
2022-12-09T12:18:03.790Z,1592
2022-12-09T12:19:04.036Z,1504
2022-12-09T12:20:04.371Z,1452
2022-12-09T12:21:04.255Z,1404
2022-12-09T12:22:03.982Z,1376
2022-12-09T12:23:03.938Z,1372
2022-12-09T12:24:03.930Z,1388
2022-12-09T12:25:04.219Z,1376
2022-12-09T12:26:03.625Z,1356
2022-12-09T12:27:03.637Z,1348
2022-12-09T12:28:04.114Z,1336
2022-12-09T12:29:12.557Z,1336
2022-12-09T12:30:04.313Z,1332
2022-12-09T12:31:03.782Z,1368
2022-12-09T12:32:03.780Z,1436
2022-12-09T12:34:35.699Z,1636
2022-12-09T12:34:48.292Z,1660
2022-12-09T12:35:48.610Z,1832
2022-12-09T12:36:48.002Z,1872
2022-12-09T12:37:48.269Z,1728
2022-12-09T12:38:48.205Z,1640
2022-12-09T12:39:48.188Z,1732
2022-12-09T12:40:48.432Z,1976
2022-12-09T12:41:47.903Z,2152
2022-12-09T12:42:48.155Z,2192
2022-12-09T12:43:47.856Z,2180
2022-12-09T12:44:48.095Z,2224
2022-12-09T12:45:55.036Z,2308
2022-12-09T12:46:48.327Z,2360
2022-12-09T12:47:48.063Z,2424
2022-12-09T12:48:48.133Z,2472
2022-12-09T12:49:47.986Z,2448
2022-12-09T12:50:47.995Z,2448
2022-12-09T12:51:54.946Z,2492
2022-12-09T12:53:03.002Z,2516
2022-12-09T12:53:47.704Z,2584
2022-12-09T12:54:47.645Z,2632
2022-12-09T12:55:48.131Z,2632
2022-12-09T12:56:48.115Z,2708
2022-12-09T12:57:48.090Z,2828
2022-12-09T12:58:47.831Z,2896
2022-12-09T12:59:47.291Z,3056
2022-12-09T13:00:48.071Z,3100
2022-12-09T13:01:48.073Z,3100
2022-12-09T13:02:47.893Z,3028
2022-12-09T13:03:47.894Z,3028
2022-12-09T13:04:47.721Z,3148
2022-12-09T13:05:47.712Z,3276
2022-12-09T13:06:47.400Z,3284
2022-12-09T13:07:48.365Z,3132
2022-12-09T13:08:47.636Z,2924
2022-12-09T13:09:47.629Z,2804
2022-12-09T13:10:47.863Z,2720
2022-12-09T13:11:47.572Z,2736
2022-12-09T13:12:47.551Z,2884
2022-12-09T13:13:47.567Z,3036
2022-12-09T13:14:54.448Z,3068
2022-12-09T13:15:47.321Z,3064
2022-12-09T13:16:47.210Z,3260
2022-12-09T13:17:47.735Z,3824
2022-12-09T13:18:47.419Z,4124
2022-12-09T13:19:47.411Z,3840
2022-12-09T13:20:47.387Z,3888
2022-12-09T13:21:47.383Z,3788
2022-12-09T13:22:47.621Z,3692
2022-12-09T13:23:47.404Z,3336
2022-12-09T13:24:47.326Z,2788
2022-12-09T13:25:47.594Z,2624
2022-12-09T13:26:47.536Z,2580
2022-12-09T13:27:47.268Z,2620
2022-12-09T13:28:47.228Z,2668
2022-12-09T13:29:47.497Z,2756
2022-12-09T13:30:54.464Z,2988
2022-12-09T13:31:46.913Z,3140
2022-12-09T13:32:46.644Z,3356
2022-12-09T13:33:46.884Z,3440
2022-12-09T13:34:47.127Z,3252
2022-12-09T13:35:47.111Z,3016
2022-12-09T13:36:46.821Z,2720
2022-12-09T13:37:47.062Z,2440
2022-12-09T13:38:47.260Z,2200
2022-12-09T13:39:47.422Z,2092
2022-12-09T13:40:47.006Z,2076
2022-12-09T13:41:47.282Z,2072
2022-12-09T13:42:53.584Z,2144
2022-12-09T13:43:46.999Z,2220
2022-12-09T13:44:46.932Z,2304
2022-12-09T13:45:47.661Z,2364
2022-12-09T13:46:46.985Z,2220
2022-12-09T13:47:46.610Z,2076
2022-12-09T13:48:46.861Z,2024
2022-12-09T13:49:46.845Z,1936
2022-12-09T13:50:46.563Z,1812
2022-12-09T13:51:47.048Z,1740
2022-12-09T13:52:46.888Z,1712
2022-12-09T13:53:52.803Z,1688
2022-12-09T13:54:46.738Z,1632
2022-12-09T13:55:47.052Z,1592
2022-12-09T13:56:46.705Z,1592
2022-12-09T13:57:46.967Z,1668
2022-12-09T13:58:46.681Z,1636
2022-12-09T13:59:46.385Z,1592
2022-12-09T14:00:46.871Z,1528
2022-12-09T14:01:46.604Z,1496
2022-12-09T14:02:46.815Z,1496
2022-12-09T14:03:47.020Z,1492
2022-12-09T14:04:46.794Z,1488
2022-12-09T14:05:46.775Z,1448
2022-12-09T14:06:46.772Z,1424
2022-12-09T14:07:47.105Z,1444
2022-12-09T14:08:46.213Z,1440
2022-12-09T14:09:46.440Z,1384
2022-12-09T14:10:46.688Z,1368
2022-12-09T14:11:46.767Z,1364
2022-12-09T14:12:50.690Z,1332
2022-12-09T14:13:46.500Z,1296
2022-12-09T14:14:46.354Z,1284
2022-12-09T14:15:46.699Z,1296
2022-12-09T14:16:46.572Z,1272
2022-12-09T14:17:46.553Z,1272